Time;durP1;ratioP1;P1;durP2;ratioP2;P2;SDS_P1;SDS_P2;PMS_P1;PMS_P2;Temp;Humidity;BMP_temperature;BMP_pressure;BME280_temperature;BME280_humidity;BME280_pressure;Samples;Min_cycle;Max_cycle;Signal;HPM_P1;HPM_P2
2021/11/14 00:00:54;;;;;;;55.78;31.33;;;;;;;-1.89;100.00;102319.23;1783635;79;21118;-83
2021/11/14 00:03:22;;;;;;;50.67;29.80;;;;;;;-1.88;100.00;102329.05;1784764;80;21011;-83
2021/11/14 00:05:50;;;;;;;59.15;30.37;;;;;;;-1.90;100.00;102327.73;1759085;80;21046;-83
2021/11/14 00:08:19;;;;;;;57.48;31.73;;;;;;;-1.88;100.00;102331.60;1778449;80;21936;-83
2021/11/14 00:10:51;;;;;;;54.25;29.98;;;;;;;-1.91;100.00;102337.12;1775609;80;21060;-83
2021/11/14 00:13:18;;;;;;;52.17;30.32;;;;;;;-1.92;100.00;102335.41;1775618;80;21082;-83
2021/11/14 00:15:45;;;;;;;61.23;30.37;;;;;;;-1.92;100.00;102333.25;1751703;80;21509;-82
2021/11/14 00:18:13;;;;;;;56.45;29.07;;;;;;;-1.93;100.00;102329.02;1775657;80;21071;-82
2021/11/14 00:20:42;;;;;;;55.52;30.52;;;;;;;-1.94;100.00;102327.31;1775585;80;21136;-82
2021/11/14 00:23:09;;;;;;;55.08;29.42;;;;;;;-1.94;100.00;102328.16;1751350;80;21517;-82
2021/11/14 00:25:36;;;;;;;64.10;33.85;;;;;;;-1.93;100.00;102326.03;1775597;80;21761;-83
2021/11/14 00:28:06;;;;;;;57.33;30.97;;;;;;;-1.94;100.00;102329.43;1775608;80;21019;-82
2021/11/14 00:30:36;;;;;;;58.17;32.08;;;;;;;-1.95;100.00;102331.55;1771783;80;21031;-83
2021/11/14 00:33:04;;;;;;;49.63;29.65;;;;;;;-1.97;100.00;102327.28;1775507;80;21142;-83
2021/11/14 00:35:32;;;;;;;49.95;27.87;;;;;;;-1.99;100.00;102324.73;1775531;80;20948;-83
2021/11/14 00:38:00;;;;;;;51.77;27.67;;;;;;;-2.00;100.00;102330.69;1775518;80;21031;-82
2021/11/14 00:40:31;;;;;;;53.85;28.60;;;;;;;-2.02;100.00;102324.70;1775513;80;21122;-83
2021/11/14 00:43:00;;;;;;;55.50;28.47;;;;;;;-2.02;100.00;102318.77;1772396;80;21548;-82
2021/11/14 00:45:30;;;;;;;47.27;26.77;;;;;;;-2.02;100.00;102322.16;1775621;80;21146;-82
2021/11/14 00:48:00;;;;;;;44.13;25.37;;;;;;;-2.03;100.00;102328.10;1775923;80;20980;-82
2021/11/14 00:50:29;;;;;;;52.27;29.00;;;;;;;-2.04;100.00;102328.11;1775645;80;21548;-83
2021/11/14 00:52:58;;;;;;;52.80;30.55;;;;;;;-2.09;100.00;102335.34;1775957;80;21110;-82
2021/11/14 00:55:28;;;;;;;50.40;28.27;;;;;;;-2.11;100.00;102339.97;1775876;80;21169;-83
2021/11/14 00:57:55;;;;;;;40.50;25.43;;;;;;;-2.18;100.00;102334.00;1775860;80;21262;-83
2021/11/14 01:00:25;;;;;;;48.20;25.45;;;;;;;-2.20;100.00;102338.67;1775464;80;21059;-84
2021/11/14 01:02:53;;;;;;;42.60;24.30;;;;;;;-2.19;100.00;102338.67;1775633;80;21004;-83
2021/11/14 01:05:22;;;;;;;42.35;23.83;;;;;;;-2.20;100.00;102339.95;1775245;80;21090;-83
2021/11/14 01:07:50;;;;;;;45.75;24.82;;;;;;;-2.20;100.00;102339.95;1775287;80;21027;-83
2021/11/14 01:10:22;;;;;;;43.55;26.02;;;;;;;-2.22;100.00;102337.36;1774891;80;21138;-83
2021/11/14 01:12:50;;;;;;;43.63;25.72;;;;;;;-2.24;100.00;102336.09;1770488;80;21102;-83
2021/11/14 01:15:19;;;;;;;43.95;25.37;;;;;;;-2.23;100.00;102336.92;1774741;80;21662;-82
2021/11/14 01:17:46;;;;;;;48.25;27.07;;;;;;;-2.24;100.00;102334.81;1774887;80;21086;-83
2021/11/14 01:20:18;;;;;;;46.08;26.00;;;;;;;-2.22;100.00;102326.75;1773164;78;21133;-84
2021/11/14 01:22:47;;;;;;;48.87;26.35;;;;;;;-2.17;100.00;102332.29;1742648;81;21143;-84
2021/11/14 01:25:18;;;;;;;42.35;24.45;;;;;;;-2.16;100.00;102332.29;1742416;81;21118;-84
2021/11/14 01:27:46;;;;;;;43.85;24.57;;;;;;;-2.13;100.00;102331.48;1742183;81;20948;-84
2021/11/14 01:30:22;;;;;;;42.85;24.40;;;;;;;-2.09;100.00;102334.46;1742154;82;21075;-83
2021/11/14 01:32:56;;;;;;;42.05;24.82;;;;;;;-2.06;100.00;102333.22;1717039;81;22155;-85
2021/11/14 01:35:23;;;;;;;45.60;25.50;;;;;;;-2.04;100.00;102335.77;1717144;82;21103;-84
2021/11/14 01:37:53;;;;;;;46.60;25.45;;;;;;;-2.04;100.00;102337.88;1741927;81;21169;-84
2021/11/14 01:40:43;;;;;;;48.05;26.60;;;;;;;-2.06;100.00;102344.70;1742108;81;21056;-84
2021/11/14 01:43:14;;;;;;;53.28;26.37;;;;;;;-2.07;100.00;102345.55;1740409;81;21137;-84
2021/11/14 01:45:42;;;;;;;47.95;25.90;;;;;;;-2.09;100.00;102338.29;1742474;82;21525;-84
2021/11/14 01:48:10;;;;;;;49.10;25.88;;;;;;;-2.11;100.00;102339.97;1742104;82;21160;-83
2021/11/14 01:50:39;;;;;;;49.03;25.57;;;;;;;-2.11;100.00;102343.40;1742604;81;21571;-82
2021/11/14 01:53:08;;;;;;;46.28;24.80;;;;;;;-2.11;100.00;102342.13;1741892;81;21039;-82
2021/11/14 01:55:41;;;;;;;56.88;27.93;;;;;;;-2.10;100.00;102341.69;1752448;81;21661;-82
2021/11/14 01:58:07;;;;;;;48.55;27.02;;;;;;;-2.09;100.00;102344.67;1721714;83;21528;-82
2021/11/14 02:00:40;;;;;;;53.63;29.20;;;;;;;-2.12;100.00;102344.64;1725529;83;21213;-82
2021/11/14 02:03:11;;;;;;;51.00;28.32;;;;;;;-2.14;100.00;102342.09;1730990;82;21482;-81
2021/11/14 02:05:40;;;;;;;47.43;26.48;;;;;;;-2.15;100.00;102342.09;1734418;81;21032;-81
2021/11/14 02:08:09;;;;;;;45.48;24.45;;;;;;;-2.15;100.00;102336.98;1725930;82;21116;-81
2021/11/14 02:10:38;;;;;;;50.95;28.02;;;;;;;-2.15;100.00;102335.27;1725633;82;21080;-82
2021/11/14 02:13:09;;;;;;;47.15;26.17;;;;;;;-2.12;100.00;102344.64;1725748;83;21104;-82
2021/11/14 02:15:40;;;;;;;;;;;;;;;-2.10;100.00;102341.69;1728131;83;21002;-82
2021/11/14 02:18:11;;;;;;;37.63;21.82;;;;;;;-2.10;100.00;102342.96;1725645;83;20204;-81
2021/11/14 02:20:41;;;;;;;39.18;21.85;;;;;;;-2.09;100.00;102348.50;1698886;83;21124;-81
2021/11/14 02:23:09;;;;;;;48.25;25.45;;;;;;;-2.04;100.00;102348.09;1698626;83;21582;-83
2021/11/14 02:25:38;;;;;;;48.17;24.10;;;;;;;-1.96;100.00;102350.27;1725508;83;21163;-81
2021/11/14 02:28:05;;;;;;;51.10;25.20;;;;;;;-1.92;100.00;102346.90;1725441;83;21061;-83
2021/11/14 02:30:32;;;;;;;44.18;23.25;;;;;;;-1.91;100.00;102343.50;1725876;83;21116;-82
2021/11/14 02:33:01;;;;;;;37.78;21.80;;;;;;;-1.89;100.00;102347.77;1725441;83;21514;-82
2021/11/14 02:35:29;;;;;;;35.58;22.52;;;;;;;-1.92;100.00;102357.52;1705848;82;21379;-81
2021/11/14 02:37:57;;;;;;;43.78;23.92;;;;;;;-1.91;100.00;102354.99;1733861;81;21192;-83
2021/11/14 02:40:24;;;;;;;39.10;22.60;;;;;;;-1.89;100.00;102349.88;1698609;83;21072;-83
2021/11/14 02:42:53;;;;;;;44.58;25.50;;;;;;;-1.91;100.00;102353.72;1725684;83;21559;-82
2021/11/14 02:45:26;;;;;;;39.20;23.30;;;;;;;-1.93;100.00;102355.40;1734277;82;21688;-82
2021/11/14 02:47:57;;;;;;;39.70;24.82;;;;;;;-1.96;100.00;102351.98;1733788;81;21087;-82
2021/11/14 02:50:26;;;;;;;40.43;24.55;;;;;;;-1.99;100.00;102353.23;1734134;82;21540;-82
2021/11/14 02:52:54;;;;;;;41.80;23.07;;;;;;;-2.02;100.00;102350.23;1733854;81;21021;-81
2021/11/14 02:55:27;;;;;;;43.58;25.32;;;;;;;-2.05;100.00;102352.80;1733659;82;21294;-82
2021/11/14 02:57:55;;;;;;;41.00;25.55;;;;;;;-2.07;100.00;102354.48;1733900;82;21589;-82
2021/11/14 03:00:31;;;;;;;47.50;27.52;;;;;;;-2.11;100.00;102353.61;1736518;81;21042;-81
2021/11/14 03:02:59;;;;;;;39.10;23.45;;;;;;;-2.15;100.00;102349.75;1731377;81;21115;-81
2021/11/14 03:05:26;;;;;;;43.95;23.77;;;;;;;-2.17;100.00;102355.27;1735253;81;21024;-82
2021/11/14 03:07:55;;;;;;;37.95;23.35;;;;;;;-2.19;100.00;102350.16;1735509;82;21092;-81
2021/11/14 03:10:27;;;;;;;42.62;23.73;;;;;;;-2.18;100.00;102354.42;1726874;83;21367;-81
2021/11/14 03:13:06;;;;;;;38.75;22.67;;;;;;;-2.19;100.00;102353.11;1706138;81;21075;-82
2021/11/14 03:15:38;;;;;;;39.18;22.02;;;;;;;-2.22;100.00;102352.28;1735559;82;21134;-81
2021/11/14 03:18:06;;;;;;;39.08;20.92;;;;;;;-2.23;100.00;102358.22;1697263;83;21015;-82
2021/11/14 03:20:35;;;;;;;47.62;25.00;;;;;;;-2.24;100.00;102364.16;1709937;82;21107;-81
2021/11/14 03:23:04;;;;;;;44.58;25.40;;;;;;;-2.25;100.00;102353.95;1744762;81;21058;-81
2021/11/14 03:25:33;;;;;;;43.40;24.67;;;;;;;-2.27;100.00;102360.30;1757322;81;21104;-81
2021/11/14 03:28:01;;;;;;;42.15;22.05;;;;;;;-2.30;100.00;102361.98;1766004;81;21828;-83
2021/11/14 03:30:33;;;;;;;41.40;22.50;;;;;;;-2.31;100.00;102359.00;1765944;79;21068;-82
2021/11/14 03:33:01;;;;;;;;;;;;;;;-2.32;100.00;102354.77;1763963;81;20997;-82
2021/11/14 03:35:31;;;;;;;44.08;22.95;;;;;;;-2.33;100.00;102360.27;1765265;80;20433;-81
2021/11/14 03:37:58;;;;;;;50.73;24.85;;;;;;;-2.35;100.00;102354.30;1758803;79;21056;-81
2021/11/14 03:40:25;;;;;;;61.02;27.07;;;;;;;-2.38;100.00;102351.74;1765831;81;21529;-81
2021/11/14 03:42:52;;;;;;;53.50;25.23;;;;;;;-2.42;100.00;102348.72;1757587;81;21104;-81
2021/11/14 03:45:19;;;;;;;54.95;25.12;;;;;;;-2.42;100.00;102348.31;1757211;81;21021;-81
2021/11/14 03:47:46;;;;;;;54.88;26.50;;;;;;;-2.39;100.00;102350.03;1759216;80;21108;-81
2021/11/14 03:50:14;;;;;;;57.53;27.52;;;;;;;-2.39;100.00;102352.58;1793207;80;21034;-82
2021/11/14 03:52:44;;;;;;;51.65;24.80;;;;;;;-2.41;100.00;102356.41;1793231;80;21127;-83
2021/11/14 03:55:14;;;;;;;;;;;;;;;-2.42;100.00;102350.00;1795300;80;21049;-82
2021/11/14 03:57:44;;;;;;;47.08;22.82;;;;;;;-2.42;100.00;102355.09;1793273;80;20183;-82
2021/11/14 04:00:19;;;;;;;50.78;23.87;;;;;;;-2.43;100.00;102358.48;1779277;79;21732;-81
2021/11/14 04:02:48;;;;;;;38.40;21.70;;;;;;;-2.42;100.00;102357.25;1806069;79;21022;-81
2021/11/14 04:05:15;;;;;;;45.10;20.75;;;;;;;-2.44;100.00;102353.83;1806424;79;21155;-82
2021/11/14 04:07:43;;;;;;;36.68;19.95;;;;;;;-2.43;100.00;102360.64;1806352;78;21037;-81
2021/11/14 04:10:11;;;;;;;38.73;20.35;;;;;;;-2.41;100.00;102361.52;1806149;79;21050;-82
2021/11/14 04:12:38;;;;;;;34.58;21.15;;;;;;;-2.35;100.00;102358.13;1806192;78;21108;-81
2021/11/14 04:15:09;;;;;;;34.58;20.55;;;;;;;-2.33;100.00;102355.17;1790549;78;21860;-82
2021/11/14 04:17:37;;;;;;;35.55;20.80;;;;;;;-2.34;100.00;102366.22;1735423;81;21194;-82
2021/11/14 04:20:07;;;;;;;35.88;22.65;;;;;;;-2.36;100.00;102360.23;1706350;82;21498;-82
2021/11/14 04:22:44;;;;;;;40.43;21.75;;;;;;;-2.39;100.00;102355.13;1727654;83;21070;-81
2021/11/14 04:25:14;;;;;;;36.20;20.95;;;;;;;-2.39;100.00;102356.41;1735180;82;21154;-81
2021/11/14 04:27:41;;;;;;;32.10;19.25;;;;;;;-2.41;100.00;102367.02;1735725;81;21024;-82
2021/11/14 04:30:09;;;;;;;30.20;17.73;;;;;;;-2.41;100.00;102376.82;1727535;80;21143;-82
2021/11/14 04:32:36;;;;;;;34.43;20.10;;;;;;;-2.32;100.00;102376.02;1741572;80;21106;-81
2021/11/14 04:35:04;;;;;;;32.48;18.07;;;;;;;-2.27;100.00;102375.62;1747549;82;21012;-81
2021/11/14 04:37:32;;;;;;;29.95;18.30;;;;;;;-2.26;100.00;102378.61;1766904;80;21009;-82
2021/11/14 04:39:59;;;;;;;28.35;17.77;;;;;;;-2.25;100.00;102379.48;1756495;80;21072;-81
2021/11/14 04:42:26;;;;;;;29.87;18.32;;;;;;;-2.26;100.00;102376.48;1757424;81;21176;-82
2021/11/14 04:44:53;;;;;;;35.13;18.67;;;;;;;-2.28;100.00;102377.73;1764646;79;21111;-83
2021/11/14 04:47:21;;;;;;;36.25;22.37;;;;;;;-2.30;100.00;102387.50;1765683;81;21114;-82
2021/11/14 04:49:50;;;;;;;33.88;20.92;;;;;;;-2.31;100.00;102389.22;1760319;80;21049;-81
2021/11/14 04:52:17;;;;;;;39.18;23.32;;;;;;;-2.33;100.00;102385.79;1788184;78;21045;-82
2021/11/14 04:54:44;;;;;;;35.65;22.87;;;;;;;-2.33;100.00;102398.55;1777022;78;21095;-82
2021/11/14 04:57:12;;;;;;;33.95;21.60;;;;;;;-2.33;100.00;102398.55;1758850;80;21157;-82
2021/11/14 04:59:39;;;;;;;33.83;21.45;;;;;;;-2.32;100.00;102401.98;1731760;80;21013;-81
2021/11/14 05:02:06;;;;;;;48.02;22.20;;;;;;;-2.31;100.00;102412.19;1755721;80;21076;-80
2021/11/14 05:04:33;;;;;;;65.70;23.38;;;;;;;-2.30;100.00;102414.30;1776441;79;20988;-82
2021/11/14 05:07:00;;;;;;;61.60;26.30;;;;;;;-1.90;100.00;102410.73;1740118;82;21878;-82
2021/11/14 05:09:27;;;;;;;48.13;25.25;;;;;;;-1.06;100.00;102409.37;1734606;80;21120;-83
2021/11/14 05:11:54;;;;;;;40.67;23.98;;;;;;;-0.41;100.00;102417.11;1769729;79;21051;-85
2021/11/14 05:14:23;;;;;;;34.98;21.70;;;;;;;-0.12;100.00;102415.38;1785492;79;21365;-86
2021/11/14 05:16:50;;;;;;;35.52;21.30;;;;;;;-0.17;100.00;102423.06;1785834;79;21031;-86
2021/11/14 05:19:17;;;;;;;55.90;25.55;;;;;;;-0.26;100.00;102420.10;1785308;79;21627;-83
2021/11/14 05:21:44;;;;;;;46.15;24.90;;;;;;;-0.10;100.00;102427.77;1759058;80;21489;-83
2021/11/14 05:24:11;;;;;;;44.03;23.10;;;;;;;0.35;100.00;102433.63;1765617;79;21785;-84
2021/11/14 05:26:38;;;;;;;39.05;23.18;;;;;;;0.61;100.00;102428.40;1724586;81;21063;-83
2021/11/14 05:29:05;;;;;;;41.42;24.10;;;;;;;0.84;100.00;102431.28;1695871;83;21119;-81
2021/11/14 05:31:33;;;;;;;140.55;30.35;;;;;;;0.93;100.00;102422.70;1748358;80;21167;-82
2021/11/14 05:34:02;;;;;;;56.53;24.12;;;;;;;0.96;100.00;102430.80;1747331;81;21048;-84
2021/11/14 05:36:29;;;;;;;57.85;26.77;;;;;;;0.98;100.00;102429.09;1759176;80;21034;-82
2021/11/14 05:38:56;;;;;;;46.80;27.77;;;;;;;0.89;100.00;102427.41;1761590;80;21070;-84
2021/11/14 05:41:26;;;;;;;41.48;26.27;;;;;;;0.68;100.00;102425.83;1732081;81;21098;-83
2021/11/14 05:43:54;;;;;;;49.18;29.05;;;;;;;0.42;100.00;102435.75;1740301;82;21770;-83
2021/11/14 05:46:21;;;;;;;56.15;30.20;;;;;;;0.30;100.00;102431.52;1749352;81;21669;-81
2021/11/14 05:48:49;;;;;;;48.20;29.72;;;;;;;0.27;100.00;102434.95;1757407;81;21539;-81
2021/11/14 05:51:16;;;;;;;44.23;27.22;;;;;;;0.01;100.00;102441.83;1743335;81;21520;-81
2021/11/14 05:53:44;;;;;;;56.37;30.68;;;;;;;-0.17;100.00;102438.02;1706628;82;21076;-81
2021/11/14 05:56:11;;;;;;;54.73;29.75;;;;;;;-0.23;100.00;102437.16;1746273;80;21183;-81
2021/11/14 06:01:13;;;;;;;52.33;29.42;;;;;;;-0.26;100.00;102448.27;1784961;79;21003;-81
2021/11/14 06:06:20;;;;;;;47.53;27.42;;;;;;;-0.10;100.00;102443.97;1768363;80;21036;-81
2021/11/14 06:08:48;;;;;;;46.53;27.25;;;;;;;0.06;100.00;102451.63;1784853;80;21002;-81
2021/11/14 06:11:17;;;;;;;63.28;34.00;;;;;;;0.16;100.00;102450.77;1785057;78;21058;-81
2021/11/14 06:13:45;;;;;;;53.20;31.37;;;;;;;0.26;100.00;102448.62;1789273;78;21035;-81
2021/11/14 06:16:12;;;;;;;53.85;31.75;;;;;;;0.29;100.00;102449.03;1774216;78;21084;-82
2021/11/14 06:18:38;;;;;;;64.03;35.98;;;;;;;0.26;100.00;102449.90;1790650;78;21025;-81
2021/11/14 06:21:06;;;;;;;53.85;31.95;;;;;;;0.25;100.00;102446.03;1790334;78;21134;-81
2021/11/14 06:23:33;;;;;;;62.00;33.92;;;;;;;0.22;100.00;102445.62;1755976;80;21080;-83
2021/11/14 06:26:00;;;;;;;60.63;34.45;;;;;;;0.22;100.00;102449.46;1787963;80;21135;-82
2021/11/14 06:28:26;;;;;;;63.58;36.60;;;;;;;0.20;100.00;102455.02;1787786;80;21491;-83
2021/11/14 06:30:54;;;;;;;63.42;34.40;;;;;;;0.21;100.00;102445.63;1787815;78;21688;-82
2021/11/14 06:33:22;;;;;;;61.85;34.92;;;;;;;0.23;100.00;102447.33;1761695;80;22015;-81
2021/11/14 06:35:49;;;;;;;54.75;33.30;;;;;;;0.26;100.00;102454.16;1777792;80;21007;-81
2021/11/14 06:38:16;;;;;;;63.90;36.63;;;;;;;0.30;100.00;102454.59;1780331;78;21109;-83
2021/11/14 06:40:43;;;;;;;62.85;34.48;;;;;;;0.36;100.00;102445.59;1775143;78;21743;-83
2021/11/14 06:43:10;;;;;;;63.65;34.15;;;;;;;0.45;100.00;102443.41;1784742;79;21064;-82
2021/11/14 06:45:37;;;;;;;59.58;34.43;;;;;;;0.62;100.00;102446.77;1781871;80;21163;-83
2021/11/14 06:48:04;;;;;;;64.45;36.20;;;;;;;0.72;100.00;102439.05;1781313;80;21060;-84
2021/11/14 06:50:32;;;;;;;51.85;31.95;;;;;;;0.72;100.00;102437.77;1787301;80;20973;-84
2021/11/14 06:53:00;;;;;;;56.48;31.70;;;;;;;0.71;100.00;102437.34;1781628;80;21004;-84
2021/11/14 06:55:27;;;;;;;57.95;32.75;;;;;;;0.80;100.00;102441.59;1788208;80;21018;-84
2021/11/14 06:57:54;;;;;;;56.90;33.42;;;;;;;0.90;100.00;102442.81;1762236;80;21124;-85
2021/11/14 07:00:24;;;;;;;48.65;29.60;;;;;;;1.01;100.00;102444.03;1731524;81;21593;-85
2021/11/14 07:02:52;;;;;;;50.15;31.42;;;;;;;1.10;100.00;102437.98;1756922;80;21028;-85
2021/11/14 07:05:19;;;;;;;50.43;31.80;;;;;;;1.23;100.00;102434.49;1759546;80;21048;-84
2021/11/14 07:07:48;;;;;;;61.75;31.17;;;;;;;1.35;100.00;102433.97;1776386;79;21516;-85
2021/11/14 07:10:17;;;;;;;59.15;34.45;;;;;;;1.40;100.00;102430.95;1785669;79;21132;-85
2021/11/14 07:12:44;;;;;;;58.65;32.85;;;;;;;1.38;100.00;102431.39;1782130;79;21055;-85
2021/11/14 07:15:14;;;;;;;57.83;34.83;;;;;;;1.38;100.00;102422.41;1793979;79;21156;-86
2021/11/14 07:17:42;;;;;;;64.85;32.30;;;;;;;1.41;100.00;102421.08;1786908;79;21041;-85
2021/11/14 07:20:13;;;;;;;64.72;37.15;;;;;;;1.52;100.00;102423.14;1785105;79;21073;-87
2021/11/14 07:22:40;;;;;;;58.42;34.03;;;;;;;1.67;100.00;102420.02;1778900;80;21793;-87
2021/11/14 07:25:08;;;;;;;59.90;33.42;;;;;;;1.67;100.00;102420.02;1780495;80;21060;-86
2021/11/14 07:27:35;;;;;;;56.77;33.02;;;;;;;1.69;100.00;102415.73;1780652;80;21780;-87
2021/11/14 07:30:05;;;;;;;60.52;34.23;;;;;;;1.73;100.00;102418.25;1780134;80;20990;-86
2021/11/14 07:32:32;;;;;;;62.10;34.35;;;;;;;1.81;100.00;102414.31;1780835;80;21096;-86
2021/11/14 07:34:59;;;;;;;47.50;31.15;;;;;;;1.88;100.00;102417.23;1780210;80;21179;-85
2021/11/14 07:37:27;;;;;;;50.65;30.95;;;;;;;1.99;100.00;102417.58;1780579;80;21014;-88
2021/11/14 07:39:54;;;;;;;58.68;35.80;;;;;;;2.09;100.00;102410.61;1780133;80;21100;-89
2021/11/14 07:42:21;;;;;;;58.58;33.30;;;;;;;2.18;100.00;102415.23;1778478;79;21053;-86
2021/11/14 07:44:48;;;;;;;56.55;33.75;;;;;;;2.25;100.00;102412.59;1775550;79;21043;-86
2021/11/14 07:47:15;;;;;;;62.58;33.48;;;;;;;2.32;100.00;102415.51;1781687;79;21135;-85
2021/11/14 07:49:43;;;;;;;50.28;32.67;;;;;;;2.42;100.00;102412.39;1779565;78;21004;-88
2021/11/14 07:52:11;;;;;;;50.03;30.62;;;;;;;2.51;100.00;102410.58;1805331;79;21061;-87
2021/11/14 07:54:38;;;;;;;52.95;31.40;;;;;;;2.74;100.00;102400.41;1743280;79;21032;-87
2021/11/14 07:57:06;;;;;;;50.83;31.68;;;;;;;2.92;100.00;102406.19;1773156;79;20946;-86
2021/11/14 07:59:33;;;;;;;49.85;30.88;;;;;;;3.04;100.00;102407.28;1767990;78;21136;-86
2021/11/14 08:02:01;;;;;;;56.68;32.23;;;;;;;3.04;100.00;102407.28;1762180;79;22980;-86
2021/11/14 08:04:29;;;;;;;50.43;31.90;;;;;;;3.17;100.00;102398.94;1773695;79;21096;-85
2021/11/14 08:06:58;;;;;;;54.83;32.05;;;;;;;3.28;100.00;102395.77;1772127;79;21013;-85
2021/11/14 08:09:25;;;;;;;46.30;30.00;;;;;;;3.39;100.00;102395.59;1792655;79;21089;-85
2021/11/14 08:11:52;;;;;;;52.10;32.30;;;;;;;3.54;100.00;102392.34;1780498;79;21143;-85
2021/11/14 08:14:21;;;;;;;46.50;29.10;;;;;;;3.68;100.00;102392.11;1740332;79;21546;-86
2021/11/14 08:16:48;;;;;;;45.48;29.82;;;;;;;3.93;100.00;102387.34;1765984;79;21607;-85
2021/11/14 08:19:16;;;;;;;50.08;30.15;;;;;;;3.93;100.00;102387.34;1788317;79;21025;-85
2021/11/14 08:21:43;;;;;;;42.93;29.55;;;;;;;4.07;100.00;102384.06;1807224;79;21519;-84
2021/11/14 08:24:13;;;;;;;46.30;29.10;;;;;;;4.18;100.00;102381.72;1761664;79;21067;-84
2021/11/14 08:26:40;;;;;;;46.05;28.73;;;;;;;4.24;100.00;102381.16;1772826;79;21030;-85
2021/11/14 08:29:08;;;;;;;47.23;27.77;;;;;;;4.32;100.00;102373.70;1792928;78;21083;-85
2021/11/14 08:31:36;;;;;;;42.75;28.00;;;;;;;4.39;100.00;102374.82;1743957;80;20942;-84
2021/11/14 08:34:03;;;;;;;44.20;26.23;;;;;;;4.50;100.00;102373.75;1769279;79;21104;-85
2021/11/14 08:36:31;;;;;;;38.53;24.30;;;;;;;4.57;100.00;102365.83;1771798;79;21566;-84
2021/11/14 08:38:58;;;;;;;38.60;23.80;;;;;;;4.65;100.00;102359.65;1773528;79;21823;-84
2021/11/14 08:41:26;;;;;;;37.60;26.57;;;;;;;4.73;100.00;102362.48;1803499;79;21041;-85
2021/11/14 08:43:54;;;;;;;42.10;26.55;;;;;;;4.84;100.00;102361.41;1794906;79;21550;-84
2021/11/14 08:46:21;;;;;;;44.50;28.00;;;;;;;4.94;100.00;102360.73;1805203;79;21011;-85
2021/11/14 08:48:49;;;;;;;47.13;27.25;;;;;;;4.99;100.00;102355.87;1790534;78;21138;-84
2021/11/14 08:51:16;;;;;;;39.10;27.05;;;;;;;5.06;100.00;102350.10;1762210;79;21071;-85
2021/11/14 08:53:43;;;;;;;40.83;27.20;;;;;;;5.17;100.00;102352.42;1770247;79;20982;-85
2021/11/14 08:56:10;;;;;;;43.48;26.70;;;;;;;5.24;100.00;102350.12;1792592;79;21080;-85
2021/11/14 08:58:38;;;;;;;39.65;23.80;;;;;;;5.33;100.00;102347.73;1806844;79;21136;-86
2021/11/14 09:01:09;;;;;;;40.25;23.83;;;;;;;5.42;100.00;102341.05;1744123;79;21000;-85
2021/11/14 09:03:37;;;;;;;32.55;20.95;;;;;;;5.53;100.00;102342.05;1766698;79;25759;-84
2021/11/14 09:06:05;;;;;;;35.65;22.17;;;;;;;5.66;100.00;102338.70;1782788;79;21983;-84
2021/11/14 09:08:33;;;;;;;29.82;19.75;;;;;;;5.80;100.00;102331.87;1807026;79;20986;-84
2021/11/14 09:11:00;;;;;;;28.30;19.25;;;;;;;5.91;100.00;102332.41;1762899;78;21029;-84
2021/11/14 09:13:28;;;;;;;35.43;20.12;;;;;;;6.05;100.00;102332.52;1818009;78;21756;-84
2021/11/14 09:15:58;;;;;;;29.82;19.40;;;;;;;6.18;100.00;102323.50;1817899;78;21068;-84
2021/11/14 09:18:27;;;;;;;30.68;19.17;;;;;;;6.29;100.00;102325.77;1771722;79;21029;-84
2021/11/14 09:20:56;;;;;;;33.50;18.98;;;;;;;6.41;100.00;102324.09;1795764;79;21013;-83
2021/11/14 09:23:29;;;;;;;33.78;21.00;;;;;;;6.50;100.00;102315.64;1795824;79;21001;-84
2021/11/14 09:25:57;;;;;;;30.92;19.00;;;;;;;6.57;100.00;102312.84;1761344;80;21146;-84
2021/11/14 09:28:25;;;;;;;26.57;19.27;;;;;;;6.65;100.00;102309.16;1783960;80;21025;-84
2021/11/14 09:30:52;;;;;;;32.10;20.37;;;;;;;6.70;100.00;102307.26;1779409;79;21017;-83
2021/11/14 09:33:25;;;;;;;29.07;19.80;;;;;;;6.77;100.00;102308.78;1751313;79;21506;-84
2021/11/14 09:35:54;;;;;;;40.17;24.65;;;;;;;6.85;100.00;102303.34;1757395;79;21558;-84
2021/11/14 09:38:22;;;;;;;33.40;22.15;;;;;;;6.89;100.00;102298.02;1795896;79;21128;-83
2021/11/14 09:40:49;;;;;;;36.28;22.50;;;;;;;6.94;100.00;102294.81;1818164;78;21258;-83
2021/11/14 09:43:19;;;;;;;31.80;21.90;;;;;;;6.98;100.00;102295.56;1751976;79;21082;-84
2021/11/14 09:45:49;;;;;;;32.25;21.02;;;;;;;7.00;100.00;102287.76;1748772;79;21086;-84
2021/11/14 09:48:16;;;;;;;32.38;21.65;;;;;;;7.04;100.00;102289.33;1787964;79;21075;-83
2021/11/14 09:50:45;;;;;;;31.45;21.20;;;;;;;7.09;100.00;102283.57;1787773;79;21785;-83
2021/11/14 09:53:12;;;;;;;30.17;21.25;;;;;;;7.14;100.00;102277.77;1792093;79;21816;-84
2021/11/14 09:55:39;;;;;;;36.60;21.15;;;;;;;7.18;100.00;102272.87;1803223;78;21118;-84
2021/11/14 09:58:08;;;;;;;31.20;20.57;;;;;;;7.22;100.00;102274.47;1759740;79;21572;-84
2021/11/14 10:00:39;;;;;;;31.75;19.87;;;;;;;7.25;100.00;102270.45;1775305;79;20997;-83
2021/11/14 10:03:09;;;;;;;32.55;20.30;;;;;;;7.30;100.00;102264.28;1778282;79;21660;-84
2021/11/14 10:05:38;;;;;;;30.00;18.15;;;;;;;7.38;100.00;102262.27;1792503;79;21052;-83
2021/11/14 10:08:09;;;;;;;29.55;19.27;;;;;;;7.48;100.00;102264.08;1775021;79;21031;-84
2021/11/14 10:10:50;;;;;;;31.00;16.80;;;;;;;7.56;100.00;102260.77;1782552;79;21088;-84
2021/11/14 10:13:21;;;;;;;;;;;;;;;7.63;100.00;102258.80;1701914;81;21151;-84
2021/11/14 10:15:53;;;;;;;25.27;16.75;;;;;;;7.71;100.00;102254.19;1699042;81;21165;-83
2021/11/14 10:18:22;;;;;;;27.98;18.70;;;;;;;7.74;100.00;102252.75;1717559;81;21598;-85
2021/11/14 10:20:51;;;;;;;27.45;19.12;;;;;;;7.76;100.00;102243.18;1725470;81;21091;-85
2021/11/14 10:23:20;;;;;;;25.90;17.67;;;;;;;7.81;100.00;102249.03;1723585;81;21546;-85
2021/11/14 10:25:50;;;;;;;36.60;20.55;;;;;;;7.85;100.00;102248.03;1701786;81;21041;-85
2021/11/14 10:28:18;;;;;;;32.48;21.42;;;;;;;7.87;100.00;102247.53;1752618;81;21173;-83
2021/11/14 10:30:47;;;;;;;28.10;19.73;;;;;;;7.91;100.00;102249.55;1753666;81;21116;-85
2021/11/14 10:33:17;;;;;;;25.95;17.57;;;;;;;7.94;100.00;102245.98;1733511;81;21621;-84
2021/11/14 10:35:49;;;;;;;28.05;17.80;;;;;;;7.97;100.00;102242.00;1725225;81;21105;-84
2021/11/14 10:38:24;;;;;;;26.62;18.52;;;;;;;8.01;100.00;102239.66;1723305;81;21164;-84
2021/11/14 10:40:57;;;;;;;27.58;18.30;;;;;;;8.07;100.00;102242.48;1692160;82;21294;-84
2021/11/14 10:43:25;;;;;;;24.43;16.07;;;;;;;8.09;100.00;102237.62;1699965;81;21065;-85
2021/11/14 10:45:58;;;;;;;26.95;17.35;;;;;;;8.13;100.00;102233.98;1750654;81;21569;-84
2021/11/14 10:48:28;;;;;;;29.98;16.85;;;;;;;8.16;100.00;102236.47;1750471;81;21013;-84
2021/11/14 10:50:59;;;;;;;24.90;18.10;;;;;;;8.18;100.00;102233.37;1753855;81;21060;-84
2021/11/14 10:53:31;;;;;;;27.95;18.75;;;;;;;8.20;100.00;102226.37;1749930;81;21150;-83
2021/11/14 10:56:04;;;;;;;27.65;17.55;;;;;;;8.19;100.00;102217.33;1726729;81;25750;-84
2021/11/14 10:58:33;;;;;;;21.73;13.85;;;;;;;8.16;100.00;102220.91;1747488;81;21518;-83
2021/11/14 11:01:04;;;;;;;18.45;13.05;;;;;;;8.16;100.00;102217.48;1723552;81;21163;-83
2021/11/14 11:03:41;;;;;;;20.15;13.08;;;;;;;8.18;100.00;102215.64;1724278;81;21065;-82
2021/11/14 11:06:23;;;;;;;20.92;11.78;;;;;;;8.19;100.00;102210.41;1723466;81;21151;-84
2021/11/14 11:08:50;;;;;;;;;;;;;;;8.19;100.00;102215.61;1700510;83;21060;-83
2021/11/14 11:11:24;;;;;;;19.62;12.93;;;;;;;8.18;100.00;102215.64;1738232;79;20193;-83
2021/11/14 11:13:53;;;;;;;20.43;12.53;;;;;;;8.17;100.00;102217.41;1772085;79;21068;-84
2021/11/14 11:16:29;;;;;;;26.42;13.93;;;;;;;8.16;100.00;102208.39;1744115;79;21025;-83
2021/11/14 11:19:01;;;;;;;26.00;13.55;;;;;;;8.15;100.00;102208.83;1772137;79;21823;-83